Buoy 51523

sailwx.info

Track history (hours):
 
Tides and Currents Weather Stations Pressure Air Temp Water Temp Dewpoint Dewpoint Depression Visibility Wind Speed Wind Dir Waves Ship Positions

Drifting buoy 51523

Last reported at 2016-Aug-29 17:45 UTC. Time now 2016-Aug-29 19:57 UTC.
Position N 22°24' E 124°29'.

Water temperature 30.2 ° C

Date/timePositionNaut miles runAvg speedWind from/ knotsBaromVisibWave heightAir tempDewpointWater temp
2016-Aug-29 17:45N 22°24' E 124°29'5 1.0 30.2
2016-Aug-29 12:30N 22°27' E 124°34'2 2.7 30.2
2016-Aug-29 11:45N 22°28' E 124°36'0 0.0 30.3
2016-Aug-29 11:00N 22°28' E 124°36'1 0.9 30.3
2016-Aug-29 10:00N 22°28' E 124°36'0 0.0 30.3
2016-Aug-29 09:45N 22°28' E 124°36'0 0.0 30.3
2016-Aug-29 09:30N 22°28' E 124°36'1 5.1 30.3
2016-Aug-29 09:15N 22°29' E 124°38'0 0.0 30.3
2016-Aug-29 08:30N 22°29' E 124°38'2 8.2 30.3
2016-Aug-29 08:15N 22°30' E 124°40'2 1.5 30.3
2016-Aug-29 06:45N 22°31' E 124°42'0 0.0 30.3
2016-Aug-29 05:15N 22°31' E 124°42'0 0.5 30.3
2016-Aug-29 05:00N 22°31' E 124°42'4 1.4 30.3
2016-Aug-29 02:00N 22°34' E 124°45'0 0.0 30.3
2016-Aug-29 00:30N 22°34' E 124°45'2 2.3 30.3
2016-Aug-28 23:45N 22°34' E 124°47'0 0.0 30.3
2016-Aug-28 23:30N 22°34' E 124°47'0 0.0 30.3
2016-Aug-28 22:45N 22°34' E 124°47'2 2.5 30.3
2016-Aug-28 22:00N 22°34' E 124°49'0 0.1 30.3
2016-Aug-28 21:30N 22°34' E 124°49'310.7 30.3
2016-Aug-28 21:15N 22°35' E 124°52'0 0.0 30.4
2016-Aug-28 19:45N 22°35' E 124°52'0 0.0 30.3
2016-Aug-28 19:30N 22°35' E 124°52'0 0.0 30.3
2016-Aug-28 19:15N 22°35' E 124°52'3 2.0 30.3
2016-Aug-28 18:00N 22°37' E 124°54'0 0.0 30.4
2016-Aug-28 17:45N 22°37' E 124°54'4 1.1 30.4
2016-Aug-28 13:45N 22°39' E 124°58'0 0.3 30.4
2016-Aug-28 13:00N 22°39' E 124°58'0 0.0 30.5
2016-Aug-28 12:45N 22°39' E 124°58'0 0.2 30.5
2016-Aug-28 12:15N 22°39' E 124°58'0 0.0 30.5
2016-Aug-28 12:00N 22°39' E 124°58'1 1.7 30.5
2016-Aug-28 11:15N 22°39' E 124°59'0 0.0 30.5
2016-Aug-28 10:30N 22°39' E 124°59'0 0.0 30.5
2016-Aug-28 10:15N 22°39' E 124°59'1 0.8 30.5
2016-Aug-28 09:30N 22°39' E 125°00'2 2.7 30.6
2016-Aug-28 08:45N 22°40' E 125°02'0 0.0 30.6
2016-Aug-28 08:30N 22°40' E 125°02'0 0.0 30.6
2016-Aug-28 07:45N 22°40' E 125°02'0 0.0 30.6
2016-Aug-28 07:00N 22°40' E 125°02'2 7.1 30.6
2016-Aug-28 06:45N 22°41' E 125°04'1 0.5 30.6
2016-Aug-28 05:15N 22°41' E 125°05'1 0.2 30.6
2016-Aug-28 01:30N 22°42' E 125°05'0 0.7 30.5
2016-Aug-28 01:00N 22°41' E 125°05'1 2.5 30.5
2016-Aug-28 00:45N 22°41' E 125°06'1 1.0 30.5
2016-Aug-28 00:00N 22°41' E 125°07'1 0.6 30.5
2016-Aug-27 22:15N 22°42' E 125°07'0 0.0 30.5
2016-Aug-27 22:00N 22°42' E 125°07'0 0.0 30.5
2016-Aug-27 21:45N 22°42' E 125°07'0 0.0 30.5
2016-Aug-27 21:30N 22°42' E 125°07'0 0.0 30.5
2016-Aug-27 20:30N 22°42' E 125°07'1 3.4 30.5
2016-Aug-27 20:15N 22°42' E 125°08'0 1.0 30.5
2016-Aug-27 19:45N 22°42' E 125°08'0 0.0 30.4
2016-Aug-27 19:30N 22°42' E 125°08'1 0.8 30.4
2016-Aug-27 18:00N 22°43' E 125°09'1 0.2 30.4
2016-Aug-27 14:15N 22°43' E 125°09'0 0.3 30.5
2016-Aug-27 13:15N 22°44' E 125°09'0 0.0 30.5
2016-Aug-27 13:00N 22°44' E 125°09'2 2.5 30.5
2016-Aug-27 12:15N 22°44' E 125°11'0 0.0 30.6
2016-Aug-27 11:30N 22°44' E 125°11'1 2.0 30.6
2016-Aug-27 11:00N 22°45' E 125°12'0 0.0 30.7
2016-Aug-27 10:45N 22°45' E 125°12'1 0.8 30.7
2016-Aug-27 09:45N 22°45' E 125°13'0 0.0 30.7
2016-Aug-27 09:30N 22°45' E 125°13'0 0.0 30.7
2016-Aug-27 09:15N 22°45' E 125°13'0 0.0 30.8
2016-Aug-27 09:00N 22°45' E 125°13'0 0.0 30.8
2016-Aug-27 08:00N 22°45' E 125°13'1 1.6 30.8
2016-Aug-27 07:30N 22°45' E 125°13'0 0.0 30.8
2016-Aug-27 07:15N 22°45' E 125°13'0 0.0 30.8
2016-Aug-27 07:00N 22°45' E 125°13'1 0.8 30.8
2016-Aug-27 05:30N 22°46' E 125°15'0 0.0 30.8
2016-Aug-27 05:15N 22°46' E 125°15'2 1.0 30.8
2016-Aug-27 02:45N 22°48' E 125°16'0 0.0 30.6
2016-Aug-27 02:00N 22°48' E 125°16'0 0.0 30.6
2016-Aug-27 01:15N 22°48' E 125°16'1 4.4 30.6
2016-Aug-27 01:00N 22°49' E 125°16'0 0.1 30.6
2016-Aug-26 22:30N 22°49' E 125°16'0 0.0 30.6
2016-Aug-26 22:00N 22°49' E 125°16'1 0.7 30.6
2016-Aug-26 21:00N 22°49' E 125°17'1 2.9 30.6
2016-Aug-26 20:45N 22°48' E 125°16'1 3.7 30.6
2016-Aug-26 20:30N 22°49' E 125°17'0 1.7 30.6
2016-Aug-26 20:15N 22°49' E 125°17'0 0.0 30.6
2016-Aug-26 19:45N 22°49' E 125°17'1 0.7 30.6
2016-Aug-26 18:15N 22°50' E 125°18'0 0.0 30.6
2016-Aug-26 18:00N 22°50' E 125°18'1 0.3 30.6
2016-Aug-26 13:45N 22°51' E 125°18'0 0.0 30.7
2016-Aug-26 13:30N 22°51' E 125°18'1 1.9 30.7
2016-Aug-26 12:45N 22°51' E 125°20'0 0.0 30.8
2016-Aug-26 12:00N 22°51' E 125°20'0 0.0 30.8
2016-Aug-26 11:45N 22°51' E 125°20'1 1.3 30.8
2016-Aug-26 11:00N 22°52' E 125°21'0 0.0 30.8
2016-Aug-26 10:00N 22°52' E 125°21'1 2.5 30.8
2016-Aug-26 09:45N 22°53' E 125°21'1 5.0 30.8
2016-Aug-26 09:30N 22°54' E 125°21'0 0.0 30.8
2016-Aug-26 08:15N 22°54' E 125°21'0 1.3 30.8
2016-Aug-26 08:00N 22°54' E 125°21'0 0.3 30.9
2016-Aug-26 07:15N 22°54' E 125°21'0 0.0 30.8
2016-Aug-26 05:45N 22°54' E 125°21'0 0.0 30.8
2016-Aug-26 05:30N 22°54' E 125°21'2 0.6 30.8
2016-Aug-26 01:45N 22°55' E 125°23'2 1.0 30.8
2016-Aug-26 00:00N 22°57' E 125°24'0 0.0 30.8
2016-Aug-25 23:45N 22°57' E 125°24'0 0.0 30.8
2016-Aug-25 22:45N 22°57' E 125°24'0 0.7 30.8
2016-Aug-25 22:30N 22°57' E 125°24'0 0.0 30.8
2016-Aug-25 22:15N 22°57' E 125°24'0 0.6 30.8
2016-Aug-25 21:30N 22°57' E 125°24'0 0.0 30.9
2016-Aug-25 21:15N 22°57' E 125°24'1 2.9 30.9
2016-Aug-25 21:00N 22°58' E 125°24'1 3.0 30.9
2016-Aug-25 20:45N 22°59' E 125°24'0 0.0 30.9
2016-Aug-25 20:00N 22°59' E 125°24'0 0.0 30.9
2016-Aug-25 19:45N 22°59' E 125°24'4 3.3 30.9
2016-Aug-25 18:30N 23°02' E 125°28'0 0.0 31.0
2016-Aug-25 14:00N 23°02' E 125°28'0 0.0 31.0
2016-Aug-25 13:15N 23°02' E 125°28'1 2.2 31.0
2016-Aug-25 13:00N 23°02' E 125°28'1 1.2 31.0
2016-Aug-25 12:15N 23°02' E 125°28'2 1.0 31.0
2016-Aug-25 10:15N 23°04' E 125°29'1 3.7 31.1
2016-Aug-25 10:00N 23°05' E 125°29'0 0.2 31.1
2016-Aug-25 08:30N 23°05' E 125°29'2 8.1 31.2
2016-Aug-25 08:15N 23°07' E 125°30'0 0.0 31.2
2016-Aug-25 06:00N 23°07' E 125°30'0 0.5 31.2
2016-Aug-25 05:45N 23°07' E 125°29'1 0.2 31.2
2016-Aug-25 02:00N 23°08' E 125°29'1 4.2 31.0
2016-Aug-25 01:45N 23°09' E 125°30'0 0.0 31.0
2016-Aug-25 00:15N 23°09' E 125°30'1 0.8 31.0
2016-Aug-24 23:00N 23°09' E 125°31'0 0.0 31.0
2016-Aug-24 22:45N 23°09' E 125°31'0 0.0 31.0
2016-Aug-24 22:00N 23°09' E 125°31'1 3.0 31.0
2016-Aug-24 21:45N 23°09' E 125°32'0 0.1 31.0
2016-Aug-24 21:15N 23°09' E 125°32'0 0.0 31.0
2016-Aug-24 21:00N 23°09' E 125°32'810.3 31.0
2016-Aug-24 20:15N 23°14' E 125°38'0 0.0 31.0
2016-Aug-24 18:45N 23°14' E 125°38'0 0.0 31.0
2016-Aug-24 18:30N 23°14' E 125°38'0 0.0 31.1
2016-Aug-24 16:45N 23°14' E 125°38'0 0.0 31.1
2016-Aug-24 12:45N 23°14' E 125°38'0 0.0 31.2
2016-Aug-24 12:30N 23°14' E 125°38'1 1.4 31.2
2016-Aug-24 11:45N 23°15' E 125°38'2 1.8 31.2
2016-Aug-24 10:45N 23°17' E 125°39'0 0.0 31.2
2016-Aug-24 10:30N 23°17' E 125°39'0 0.0 31.2
2016-Aug-24 10:15N 23°17' E 125°39'3 2.2 31.2
2016-Aug-24 08:45N 23°20' E 125°38'0 0.0 31.3
2016-Aug-24 08:30N 23°20' E 125°38'1 0.3 31.3
2016-Aug-24 04:30N 23°21' E 125°38'0 0.0 31.3
2016-Aug-24 04:15N 23°21' E 125°38'1 0.7 31.3
2016-Aug-24 02:15N 23°21' E 125°40'0 0.0 31.2
2016-Aug-23 23:00N 23°21' E 125°40'0 0.2 31.0
2016-Aug-23 22:30N 23°21' E 125°40'0 0.0 31.0
2016-Aug-23 22:15N 23°21' E 125°40'1 2.0 31.0
2016-Aug-23 21:45N 23°20' E 125°41'0 0.0 31.0
2016-Aug-23 21:30N 23°20' E 125°41'0 0.0 31.0
2016-Aug-23 21:15N 23°20' E 125°41'1 1.2 31.0
2016-Aug-23 20:45N 23°20' E 125°41'2 0.9 31.0
2016-Aug-23 18:45N 23°20' E 125°43'6 3.2 31.0
2016-Aug-23 17:00N 23°22' E 125°49'0 0.0 31.0
2016-Aug-23 13:45N 23°22' E 125°49'1 0.9 31.1
2016-Aug-23 13:00N 23°22' E 125°49'0 0.0 31.1
2016-Aug-23 12:45N 23°22' E 125°49'1 2.4 31.1
2016-Aug-23 12:15N 23°23' E 125°50'1 4.1 31.1
2016-Aug-23 12:00N 23°24' E 125°51'0 0.0 31.1
2016-Aug-23 11:15N 23°24' E 125°51'2 2.1 31.2
2016-Aug-23 10:30N 23°25' E 125°51'1 1.4 31.2
2016-Aug-23 09:45N 23°26' E 125°51'1 2.2 31.3
2016-Aug-23 09:15N 23°27' E 125°51'1 2.4 31.5
2016-Aug-23 09:00N 23°27' E 125°51'312.3 31.5
2016-Aug-23 08:45N 23°29' E 125°49'0 0.0 31.5
2016-Aug-23 07:30N 23°29' E 125°49'1 0.6 31.6
2016-Aug-23 06:15N 23°30' E 125°48'0 0.0 31.7
2016-Aug-23 06:00N 23°30' E 125°48'0 0.2 31.7
2016-Aug-23 04:30N 23°29' E 125°48'1 0.7 31.6
2016-Aug-23 02:45N 23°28' E 125°48'0 0.0 31.5
2016-Aug-23 01:00N 23°28' E 125°48'1 2.7 31.2
2016-Aug-23 00:45N 23°28' E 125°48'1 0.8 31.2
2016-Aug-22 23:15N 23°27' E 125°50'0 0.0 30.9
2016-Aug-22 23:00N 23°27' E 125°50'0 0.0 30.9
2016-Aug-22 22:00N 23°27' E 125°50'0 0.0 30.9
2016-Aug-22 21:30N 23°27' E 125°50'0 0.0 30.9
2016-Aug-22 21:15N 23°27' E 125°50'2 2.7 30.9
2016-Aug-22 20:30N 23°27' E 125°52'0 0.0 31.0
2016-Aug-22 20:15N 23°27' E 125°52'0 0.0 31.0
2016-Aug-22 19:00N 23°27' E 125°52'0 0.0 31.0
2016-Aug-22 18:45N 23°27' E 125°52'2 1.1 31.0
2016-Aug-22 17:15N 23°27' E 125°54'3 1.0 31.0
2016-Aug-22 14:15N 23°28' E 125°57'1 0.7 31.2
2016-Aug-22 13:15N 23°28' E 125°57'3 2.3 31.2
2016-Aug-22 11:45N 23°31' E 125°59'0 0.0 31.3
2016-Aug-22 11:30N 23°31' E 125°59'0 0.0 31.3
2016-Aug-22 10:45N 23°31' E 125°59'0 0.0 31.3
2016-Aug-22 10:30N 23°31' E 125°59'1 1.4 31.3
2016-Aug-22 09:45N 23°32' E 126°00'1 3.3 31.3
2016-Aug-22 09:30N 23°33' E 126°00'1 1.5 31.4
2016-Aug-22 09:00N 23°33' E 126°00'0 0.0 31.4
2016-Aug-22 08:45N 23°33' E 126°00'0 0.0 31.4
2016-Aug-22 08:30N 23°33' E 126°00'0 0.0 31.5
2016-Aug-22 08:00N 23°33' E 126°00'0 0.0 31.5
2016-Aug-22 07:45N 23°33' E 126°00'1 1.2 31.5
2016-Aug-22 06:30N 23°34' E 125°59'0 1.2 31.5
2016-Aug-22 06:15N 23°34' E 125°59'1 0.5 31.5
2016-Aug-22 04:45N 23°33' E 125°59'1 0.3 31.4
2016-Aug-22 02:00N 23°33' E 125°60'0 0.1 30.9
2016-Aug-22 01:15N 23°33' E 125°60'1 1.6 30.9
2016-Aug-22 00:30N 23°33' E 126°01'0 0.0 30.8
2016-Aug-22 00:15N 23°33' E 126°01'2 3.2 30.9
2016-Aug-21 23:45N 23°32' E 126°03'0 0.0 30.9
2016-Aug-21 23:15N 23°32' E 126°03'0 0.0 30.9
2016-Aug-21 22:30N 23°32' E 126°03'1 3.3 30.9
2016-Aug-21 22:15N 23°32' E 126°03'1 1.9 30.9
2016-Aug-21 21:45N 23°32' E 126°04'0 0.0 30.9
2016-Aug-21 21:30N 23°32' E 126°04'0 0.3 30.9
2016-Aug-21 20:45N 23°32' E 126°04'1 2.8 30.9
2016-Aug-21 20:15N 23°32' E 126°06'0 1.6 30.9
2016-Aug-21 20:00N 23°32' E 126°06'0 0.1 30.9
2016-Aug-21 19:15N 23°32' E 126°06'1 5.8 30.9
2016-Aug-21 19:00N 23°32' E 126°08'0 0.1 30.9
2016-Aug-21 17:30N 23°32' E 126°07'0 0.0 30.9
2016-Aug-21 17:15N 23°32' E 126°07'4 1.2 30.9
2016-Aug-21 13:45N 23°32' E 126°12'0 0.0 30.9
2016-Aug-21 13:30N 23°32' E 126°12'2 4.4 30.9
2016-Aug-21 13:00N 23°33' E 126°14'1 3.3 31.0
2016-Aug-21 12:45N 23°33' E 126°13'1 1.1 31.0
2016-Aug-21 12:00N 23°33' E 126°14'0 0.0 31.0
2016-Aug-21 11:45N 23°33' E 126°14'1 2.9 31.1
2016-Aug-21 11:15N 23°34' E 126°15'0 0.0 31.1
2016-Aug-21 11:00N 23°34' E 126°15'0 1.0 31.2
2016-Aug-21 10:45N 23°34' E 126°15'1 3.1 31.1
2016-Aug-21 10:30N 23°34' E 126°15'0 0.0 31.1
2016-Aug-21 10:00N 23°34' E 126°15'0 0.0 31.1
2016-Aug-21 09:15N 23°34' E 126°15'0 1.1 31.2
2016-Aug-21 09:00N 23°34' E 126°15'0 0.5 31.3
2016-Aug-21 08:30N 23°34' E 126°15'1 0.4 31.3
2016-Aug-21 06:45N 23°34' E 126°16'0 0.0 31.4
2016-Aug-21 06:30N 23°34' E 126°16'1 0.7 31.4
2016-Aug-21 05:00N 23°34' E 126°17'0 0.0 31.5
2016-Aug-21 04:45N 23°34' E 126°17'3 0.9 31.5
2016-Aug-21 01:45N 23°33' E 126°20'1 5.0 31.0
2016-Aug-21 01:30N 23°32' E 126°21'0 0.2 31.0
2016-Aug-21 00:00N 23°32' E 126°21'0 0.0 30.9
2016-Aug-20 23:45N 23°32' E 126°21'1 3.4 30.9
2016-Aug-20 23:30N 23°32' E 126°22'0 0.0 30.9
2016-Aug-20 22:45N 23°32' E 126°22'0 0.7 30.9
2016-Aug-20 22:15N 23°32' E 126°22'1 5.8 30.9
2016-Aug-20 22:00N 23°31' E 126°24'0 0.0 30.9
2016-Aug-20 21:45N 23°31' E 126°24'0 0.5 30.9
2016-Aug-20 21:15N 23°31' E 126°24'0 1.2 30.9
2016-Aug-20 21:00N 23°31' E 126°24'0 0.0 30.9
2016-Aug-20 20:45N 23°31' E 126°24'0 0.0 30.9
2016-Aug-20 20:30N 23°31' E 126°24'1 5.5 30.9
2016-Aug-20 20:15N 23°30' E 126°25'0 0.0 30.9
2016-Aug-20 19:30N 23°30' E 126°25'2 8.4 30.9
2016-Aug-20 19:15N 23°30' E 126°28'6 3.8 30.9
2016-Aug-20 17:45N 23°32' E 126°34'0 0.0 30.9
2016-Aug-20 17:30N 23°32' E 126°34'0 0.0 30.9
2016-Aug-20 14:00N 23°32' E 126°34'0 0.2 30.9
2016-Aug-20 13:15N 23°32' E 126°34'0 0.5 30.9
2016-Aug-20 13:00N 23°32' E 126°34'2 3.3 30.9
2016-Aug-20 12:15N 23°33' E 126°36'0 0.0 30.9
2016-Aug-20 11:30N 23°33' E 126°36'1 1.2 30.9
2016-Aug-20 11:00N 23°33' E 126°36'0 0.3 30.9
2016-Aug-20 10:30N 23°33' E 126°36'0 0.2 30.9
2016-Aug-20 09:30N 23°33' E 126°37'0 0.0 31.0
2016-Aug-20 09:15N 23°33' E 126°37'0 0.2 31.0
2016-Aug-20 08:45N 23°33' E 126°37'1 1.4 31.0
2016-Aug-20 07:45N 23°33' E 126°38'1 0.9 31.0
2016-Aug-20 06:45N 23°33' E 126°39'0 0.1 31.0
2016-Aug-20 05:15N 23°33' E 126°39'311.2 31.0
2016-Aug-20 05:00N 23°32' E 126°42'1 0.3 31.0
2016-Aug-20 02:00N 23°33' E 126°41'0 0.0 30.8
2016-Aug-20 01:45N 23°33' E 126°41'3 3.5 30.8
2016-Aug-20 01:00N 23°32' E 126°44'3 3.9 30.8
2016-Aug-20 00:15N 23°31' E 126°47'0 0.0 30.7
2016-Aug-19 22:45N 23°31' E 126°47'0 0.0 30.7
2016-Aug-19 22:15N 23°31' E 126°47'0 0.4 30.7
2016-Aug-19 22:00N 23°31' E 126°47'2 7.5 30.7
2016-Aug-19 21:45N 23°31' E 126°49'311.9 30.7
2016-Aug-19 21:30N 23°31' E 126°52'0 0.0 30.7
2016-Aug-19 21:15N 23°31' E 126°52'0 0.0 30.7
2016-Aug-19 21:00N 23°31' E 126°52'0 0.0 30.7
2016-Aug-19 20:30N 23°31' E 126°52'0 0.0 30.7
2016-Aug-19 20:15N 23°31' E 126°52'0 0.0 30.8
2016-Aug-19 20:00N 23°31' E 126°52'0 0.0 30.8
2016-Aug-19 18:00N 23°31' E 126°52'521.1 30.8
2016-Aug-19 17:45N 23°30' E 126°58'   30.8
Track history (hours):
 
Tides and Currents Weather Stations Pressure Air Temp Water Temp Dewpoint Dewpoint Depression Visibility Wind Speed Wind Dir Waves Ship Positions

Drifting buoy 51523

Last reported at 2016-Aug-29 17:45 UTC. Time now 2016-Aug-29 19:57 UTC.
Position N 22°24' E 124°29'.

Water temperature 30.2 ° C

Date/timePositionNaut miles runAvg speedWind from/ knotsBaromVisibWave heightAir tempDewpointWater temp
2016-Aug-29 17:45N 22°24' E 124°29'5 1.0 30.2
2016-Aug-29 12:30N 22°27' E 124°34'2 2.7 30.2
2016-Aug-29 11:45N 22°28' E 124°36'0 0.0 30.3
2016-Aug-29 11:00N 22°28' E 124°36'1 0.9 30.3
2016-Aug-29 10:00N 22°28' E 124°36'0 0.0 30.3
2016-Aug-29 09:45N 22°28' E 124°36'0 0.0 30.3
2016-Aug-29 09:30N 22°28' E 124°36'1 5.1 30.3
2016-Aug-29 09:15N 22°29' E 124°38'0 0.0 30.3
2016-Aug-29 08:30N 22°29' E 124°38'2 8.2 30.3
2016-Aug-29 08:15N 22°30' E 124°40'2 1.5 30.3
2016-Aug-29 06:45N 22°31' E 124°42'0 0.0 30.3
2016-Aug-29 05:15N 22°31' E 124°42'0 0.5 30.3
2016-Aug-29 05:00N 22°31' E 124°42'4 1.4 30.3
2016-Aug-29 02:00N 22°34' E 124°45'0 0.0 30.3
2016-Aug-29 00:30N 22°34' E 124°45'2 2.3 30.3
2016-Aug-28 23:45N 22°34' E 124°47'0 0.0 30.3
2016-Aug-28 23:30N 22°34' E 124°47'0 0.0 30.3
2016-Aug-28 22:45N 22°34' E 124°47'2 2.5 30.3
2016-Aug-28 22:00N 22°34' E 124°49'0 0.1 30.3
2016-Aug-28 21:30N 22°34' E 124°49'310.7 30.3
2016-Aug-28 21:15N 22°35' E 124°52'0 0.0 30.4
2016-Aug-28 19:45N 22°35' E 124°52'0 0.0 30.3
2016-Aug-28 19:30N 22°35' E 124°52'0 0.0 30.3
2016-Aug-28 19:15N 22°35' E 124°52'3 2.0 30.3
2016-Aug-28 18:00N 22°37' E 124°54'0 0.0 30.4
2016-Aug-28 17:45N 22°37' E 124°54'4 1.1 30.4
2016-Aug-28 13:45N 22°39' E 124°58'0 0.3 30.4
2016-Aug-28 13:00N 22°39' E 124°58'0 0.0 30.5
2016-Aug-28 12:45N 22°39' E 124°58'0 0.2 30.5
2016-Aug-28 12:15N 22°39' E 124°58'0 0.0 30.5
2016-Aug-28 12:00N 22°39' E 124°58'1 1.7 30.5
2016-Aug-28 11:15N 22°39' E 124°59'0 0.0 30.5
2016-Aug-28 10:30N 22°39' E 124°59'0 0.0 30.5
2016-Aug-28 10:15N 22°39' E 124°59'1 0.8 30.5
2016-Aug-28 09:30N 22°39' E 125°00'2 2.7 30.6
2016-Aug-28 08:45N 22°40' E 125°02'0 0.0 30.6
2016-Aug-28 08:30N 22°40' E 125°02'0 0.0 30.6
2016-Aug-28 07:45N 22°40' E 125°02'0 0.0 30.6
2016-Aug-28 07:00N 22°40' E 125°02'2 7.1 30.6
2016-Aug-28 06:45N 22°41' E 125°04'1 0.5 30.6
2016-Aug-28 05:15N 22°41' E 125°05'1 0.2 30.6
2016-Aug-28 01:30N 22°42' E 125°05'0 0.7 30.5
2016-Aug-28 01:00N 22°41' E 125°05'1 2.5 30.5
2016-Aug-28 00:45N 22°41' E 125°06'1 1.0 30.5
2016-Aug-28 00:00N 22°41' E 125°07'1 0.6 30.5
2016-Aug-27 22:15N 22°42' E 125°07'0 0.0 30.5
2016-Aug-27 22:00N 22°42' E 125°07'0 0.0 30.5
2016-Aug-27 21:45N 22°42' E 125°07'0 0.0 30.5
2016-Aug-27 21:30N 22°42' E 125°07'0 0.0 30.5
2016-Aug-27 20:30N 22°42' E 125°07'1 3.4 30.5
2016-Aug-27 20:15N 22°42' E 125°08'0 1.0 30.5
2016-Aug-27 19:45N 22°42' E 125°08'0 0.0 30.4
2016-Aug-27 19:30N 22°42' E 125°08'1 0.8 30.4
2016-Aug-27 18:00N 22°43' E 125°09'1 0.2 30.4
2016-Aug-27 14:15N 22°43' E 125°09'0 0.3 30.5
2016-Aug-27 13:15N 22°44' E 125°09'0 0.0 30.5
2016-Aug-27 13:00N 22°44' E 125°09'2 2.5 30.5
2016-Aug-27 12:15N 22°44' E 125°11'0 0.0 30.6
2016-Aug-27 11:30N 22°44' E 125°11'1 2.0 30.6
2016-Aug-27 11:00N 22°45' E 125°12'0 0.0 30.7
2016-Aug-27 10:45N 22°45' E 125°12'1 0.8 30.7
2016-Aug-27 09:45N 22°45' E 125°13'0 0.0 30.7
2016-Aug-27 09:30N 22°45' E 125°13'0 0.0 30.7
2016-Aug-27 09:15N 22°45' E 125°13'0 0.0 30.8
2016-Aug-27 09:00N 22°45' E 125°13'0 0.0 30.8
2016-Aug-27 08:00N 22°45' E 125°13'1 1.6 30.8
2016-Aug-27 07:30N 22°45' E 125°13'0 0.0 30.8
2016-Aug-27 07:15N 22°45' E 125°13'0 0.0 30.8
2016-Aug-27 07:00N 22°45' E 125°13'1 0.8 30.8
2016-Aug-27 05:30N 22°46' E 125°15'0 0.0 30.8
2016-Aug-27 05:15N 22°46' E 125°15'2 1.0 30.8
2016-Aug-27 02:45N 22°48' E 125°16'0 0.0 30.6
2016-Aug-27 02:00N 22°48' E 125°16'0 0.0 30.6
2016-Aug-27 01:15N 22°48' E 125°16'1 4.4 30.6
2016-Aug-27 01:00N 22°49' E 125°16'0 0.1 30.6
2016-Aug-26 22:30N 22°49' E 125°16'0 0.0 30.6
2016-Aug-26 22:00N 22°49' E 125°16'1 0.7 30.6
2016-Aug-26 21:00N 22°49' E 125°17'1 2.9 30.6
2016-Aug-26 20:45N 22°48' E 125°16'1 3.7 30.6
2016-Aug-26 20:30N 22°49' E 125°17'0 1.7 30.6
2016-Aug-26 20:15N 22°49' E 125°17'0 0.0 30.6
2016-Aug-26 19:45N 22°49' E 125°17'1 0.7 30.6
2016-Aug-26 18:15N 22°50' E 125°18'0 0.0 30.6
2016-Aug-26 18:00N 22°50' E 125°18'1 0.3 30.6
2016-Aug-26 13:45N 22°51' E 125°18'0 0.0 30.7
2016-Aug-26 13:30N 22°51' E 125°18'1 1.9 30.7
2016-Aug-26 12:45N 22°51' E 125°20'0 0.0 30.8
2016-Aug-26 12:00N 22°51' E 125°20'0 0.0 30.8
2016-Aug-26 11:45N 22°51' E 125°20'1 1.3 30.8
2016-Aug-26 11:00N 22°52' E 125°21'0 0.0 30.8
2016-Aug-26 10:00N 22°52' E 125°21'1 2.5 30.8
2016-Aug-26 09:45N 22°53' E 125°21'1 5.0 30.8
2016-Aug-26 09:30N 22°54' E 125°21'0 0.0 30.8
2016-Aug-26 08:15N 22°54' E 125°21'0 1.3 30.8
2016-Aug-26 08:00N 22°54' E 125°21'0 0.3 30.9
2016-Aug-26 07:15N 22°54' E 125°21'0 0.0 30.8
2016-Aug-26 05:45N 22°54' E 125°21'0 0.0 30.8
2016-Aug-26 05:30N 22°54' E 125°21'2 0.6 30.8
2016-Aug-26 01:45N 22°55' E 125°23'2 1.0 30.8
2016-Aug-26 00:00N 22°57' E 125°24'0 0.0 30.8
2016-Aug-25 23:45N 22°57' E 125°24'0 0.0 30.8
2016-Aug-25 22:45N 22°57' E 125°24'0 0.7 30.8
2016-Aug-25 22:30N 22°57' E 125°24'0 0.0 30.8
2016-Aug-25 22:15N 22°57' E 125°24'0 0.6 30.8
2016-Aug-25 21:30N 22°57' E 125°24'0 0.0 30.9
2016-Aug-25 21:15N 22°57' E 125°24'1 2.9 30.9
2016-Aug-25 21:00N 22°58' E 125°24'1 3.0 30.9
2016-Aug-25 20:45N 22°59' E 125°24'0 0.0 30.9
2016-Aug-25 20:00N 22°59' E 125°24'0 0.0 30.9
2016-Aug-25 19:45N 22°59' E 125°24'4 3.3 30.9
2016-Aug-25 18:30N 23°02' E 125°28'0 0.0 31.0
2016-Aug-25 14:00N 23°02' E 125°28'0 0.0 31.0
2016-Aug-25 13:15N 23°02' E 125°28'1 2.2 31.0
2016-Aug-25 13:00N 23°02' E 125°28'1 1.2 31.0
2016-Aug-25 12:15N 23°02' E 125°28'2 1.0 31.0
2016-Aug-25 10:15N 23°04' E 125°29'1 3.7 31.1
2016-Aug-25 10:00N 23°05' E 125°29'0 0.2 31.1
2016-Aug-25 08:30N 23°05' E 125°29'2 8.1 31.2
2016-Aug-25 08:15N 23°07' E 125°30'0 0.0 31.2
2016-Aug-25 06:00N 23°07' E 125°30'0 0.5 31.2
2016-Aug-25 05:45N 23°07' E 125°29'1 0.2 31.2
2016-Aug-25 02:00N 23°08' E 125°29'1 4.2 31.0
2016-Aug-25 01:45N 23°09' E 125°30'0 0.0 31.0
2016-Aug-25 00:15N 23°09' E 125°30'1 0.8 31.0
2016-Aug-24 23:00N 23°09' E 125°31'0 0.0 31.0
2016-Aug-24 22:45N 23°09' E 125°31'0 0.0 31.0
2016-Aug-24 22:00N 23°09' E 125°31'1 3.0 31.0
2016-Aug-24 21:45N 23°09' E 125°32'0 0.1 31.0
2016-Aug-24 21:15N 23°09' E 125°32'0 0.0 31.0
2016-Aug-24 21:00N 23°09' E 125°32'810.3 31.0
2016-Aug-24 20:15N 23°14' E 125°38'0 0.0 31.0
2016-Aug-24 18:45N 23°14' E 125°38'0 0.0 31.0
2016-Aug-24 18:30N 23°14' E 125°38'0 0.0 31.1
2016-Aug-24 16:45N 23°14' E 125°38'0 0.0 31.1
2016-Aug-24 12:45N 23°14' E 125°38'0 0.0 31.2
2016-Aug-24 12:30N 23°14' E 125°38'1 1.4 31.2
2016-Aug-24 11:45N 23°15' E 125°38'2 1.8 31.2
2016-Aug-24 10:45N 23°17' E 125°39'0 0.0 31.2
2016-Aug-24 10:30N 23°17' E 125°39'0 0.0 31.2
2016-Aug-24 10:15N 23°17' E 125°39'3 2.2 31.2
2016-Aug-24 08:45N 23°20' E 125°38'0 0.0 31.3
2016-Aug-24 08:30N 23°20' E 125°38'1 0.3 31.3
2016-Aug-24 04:30N 23°21' E 125°38'0 0.0 31.3
2016-Aug-24 04:15N 23°21' E 125°38'1 0.7 31.3
2016-Aug-24 02:15N 23°21' E 125°40'0 0.0 31.2
2016-Aug-23 23:00N 23°21' E 125°40'0 0.2 31.0
2016-Aug-23 22:30N 23°21' E 125°40'0 0.0 31.0
2016-Aug-23 22:15N 23°21' E 125°40'1 2.0 31.0
2016-Aug-23 21:45N 23°20' E 125°41'0 0.0 31.0
2016-Aug-23 21:30N 23°20' E 125°41'0 0.0 31.0
2016-Aug-23 21:15N 23°20' E 125°41'1 1.2 31.0
2016-Aug-23 20:45N 23°20' E 125°41'2 0.9 31.0
2016-Aug-23 18:45N 23°20' E 125°43'6 3.2 31.0
2016-Aug-23 17:00N 23°22' E 125°49'0 0.0 31.0
2016-Aug-23 13:45N 23°22' E 125°49'1 0.9 31.1
2016-Aug-23 13:00N 23°22' E 125°49'0 0.0 31.1
2016-Aug-23 12:45N 23°22' E 125°49'1 2.4 31.1
2016-Aug-23 12:15N 23°23' E 125°50'1 4.1 31.1
2016-Aug-23 12:00N 23°24' E 125°51'0 0.0 31.1
2016-Aug-23 11:15N 23°24' E 125°51'2 2.1 31.2
2016-Aug-23 10:30N 23°25' E 125°51'1 1.4 31.2
2016-Aug-23 09:45N 23°26' E 125°51'1 2.2 31.3
2016-Aug-23 09:15N 23°27' E 125°51'1 2.4 31.5
2016-Aug-23 09:00N 23°27' E 125°51'312.3 31.5
2016-Aug-23 08:45N 23°29' E 125°49'0 0.0 31.5
2016-Aug-23 07:30N 23°29' E 125°49'1 0.6 31.6
2016-Aug-23 06:15N 23°30' E 125°48'0 0.0 31.7
2016-Aug-23 06:00N 23°30' E 125°48'0 0.2 31.7
2016-Aug-23 04:30N 23°29' E 125°48'1 0.7 31.6
2016-Aug-23 02:45N 23°28' E 125°48'0 0.0 31.5
2016-Aug-23 01:00N 23°28' E 125°48'1 2.7 31.2
2016-Aug-23 00:45N 23°28' E 125°48'1 0.8 31.2
2016-Aug-22 23:15N 23°27' E 125°50'0 0.0 30.9
2016-Aug-22 23:00N 23°27' E 125°50'0 0.0 30.9
2016-Aug-22 22:00N 23°27' E 125°50'0 0.0 30.9
2016-Aug-22 21:30N 23°27' E 125°50'0 0.0 30.9
2016-Aug-22 21:15N 23°27' E 125°50'2 2.7 30.9
2016-Aug-22 20:30N 23°27' E 125°52'0 0.0 31.0
2016-Aug-22 20:15N 23°27' E 125°52'0 0.0 31.0
2016-Aug-22 19:00N 23°27' E 125°52'0 0.0 31.0
2016-Aug-22 18:45N 23°27' E 125°52'2 1.1 31.0
2016-Aug-22 17:15N 23°27' E 125°54'3 1.0 31.0
2016-Aug-22 14:15N 23°28' E 125°57'1 0.7 31.2
2016-Aug-22 13:15N 23°28' E 125°57'3 2.3 31.2
2016-Aug-22 11:45N 23°31' E 125°59'0 0.0 31.3
2016-Aug-22 11:30N 23°31' E 125°59'0 0.0 31.3
2016-Aug-22 10:45N 23°31' E 125°59'0 0.0 31.3
2016-Aug-22 10:30N 23°31' E 125°59'1 1.4 31.3
2016-Aug-22 09:45N 23°32' E 126°00'1 3.3 31.3
2016-Aug-22 09:30N 23°33' E 126°00'1 1.5 31.4
2016-Aug-22 09:00N 23°33' E 126°00'0 0.0 31.4
2016-Aug-22 08:45N 23°33' E 126°00'0 0.0 31.4
2016-Aug-22 08:30N 23°33' E 126°00'0 0.0 31.5
2016-Aug-22 08:00N 23°33' E 126°00'0 0.0 31.5
2016-Aug-22 07:45N 23°33' E 126°00'1 1.2 31.5
2016-Aug-22 06:30N 23°34' E 125°59'0 1.2 31.5
2016-Aug-22 06:15N 23°34' E 125°59'1 0.5 31.5
2016-Aug-22 04:45N 23°33' E 125°59'1 0.3 31.4
2016-Aug-22 02:00N 23°33' E 125°60'0 0.1 30.9
2016-Aug-22 01:15N 23°33' E 125°60'1 1.6 30.9
2016-Aug-22 00:30N 23°33' E 126°01'0 0.0 30.8
2016-Aug-22 00:15N 23°33' E 126°01'2 3.2 30.9
2016-Aug-21 23:45N 23°32' E 126°03'0 0.0 30.9
2016-Aug-21 23:15N 23°32' E 126°03'0 0.0 30.9
2016-Aug-21 22:30N 23°32' E 126°03'1 3.3 30.9
2016-Aug-21 22:15N 23°32' E 126°03'1 1.9 30.9
2016-Aug-21 21:45N 23°32' E 126°04'0 0.0 30.9
2016-Aug-21 21:30N 23°32' E 126°04'0 0.3 30.9
2016-Aug-21 20:45N 23°32' E 126°04'1 2.8 30.9
2016-Aug-21 20:15N 23°32' E 126°06'0 1.6 30.9
2016-Aug-21 20:00N 23°32' E 126°06'0 0.1 30.9
2016-Aug-21 19:15N 23°32' E 126°06'1 5.8 30.9
2016-Aug-21 19:00N 23°32' E 126°08'0 0.1 30.9
2016-Aug-21 17:30N 23°32' E 126°07'0 0.0 30.9
2016-Aug-21 17:15N 23°32' E 126°07'4 1.2 30.9
2016-Aug-21 13:45N 23°32' E 126°12'0 0.0 30.9
2016-Aug-21 13:30N 23°32' E 126°12'2 4.4 30.9
2016-Aug-21 13:00N 23°33' E 126°14'1 3.3 31.0
2016-Aug-21 12:45N 23°33' E 126°13'1 1.1 31.0
2016-Aug-21 12:00N 23°33' E 126°14'0 0.0 31.0
2016-Aug-21 11:45N 23°33' E 126°14'1 2.9 31.1
2016-Aug-21 11:15N 23°34' E 126°15'0 0.0 31.1
2016-Aug-21 11:00N 23°34' E 126°15'0 1.0 31.2
2016-Aug-21 10:45N 23°34' E 126°15'1 3.1 31.1
2016-Aug-21 10:30N 23°34' E 126°15'0 0.0 31.1
2016-Aug-21 10:00N 23°34' E 126°15'0 0.0 31.1
2016-Aug-21 09:15N 23°34' E 126°15'0 1.1 31.2
2016-Aug-21 09:00N 23°34' E 126°15'0 0.5 31.3
2016-Aug-21 08:30N 23°34' E 126°15'1 0.4 31.3
2016-Aug-21 06:45N 23°34' E 126°16'0 0.0 31.4
2016-Aug-21 06:30N 23°34' E 126°16'1 0.7 31.4
2016-Aug-21 05:00N 23°34' E 126°17'0 0.0 31.5
2016-Aug-21 04:45N 23°34' E 126°17'3 0.9 31.5
2016-Aug-21 01:45N 23°33' E 126°20'1 5.0 31.0
2016-Aug-21 01:30N 23°32' E 126°21'0 0.2 31.0
2016-Aug-21 00:00N 23°32' E 126°21'0 0.0 30.9
2016-Aug-20 23:45N 23°32' E 126°21'1 3.4 30.9
2016-Aug-20 23:30N 23°32' E 126°22'0 0.0 30.9
2016-Aug-20 22:45N 23°32' E 126°22'0 0.7 30.9
2016-Aug-20 22:15N 23°32' E 126°22'1 5.8 30.9
2016-Aug-20 22:00N 23°31' E 126°24'0 0.0 30.9
2016-Aug-20 21:45N 23°31' E 126°24'0 0.5 30.9
2016-Aug-20 21:15N 23°31' E 126°24'0 1.2 30.9
2016-Aug-20 21:00N 23°31' E 126°24'0 0.0 30.9
2016-Aug-20 20:45N 23°31' E 126°24'0 0.0 30.9
2016-Aug-20 20:30N 23°31' E 126°24'1 5.5 30.9
2016-Aug-20 20:15N 23°30' E 126°25'0 0.0 30.9
2016-Aug-20 19:30N 23°30' E 126°25'2 8.4 30.9
2016-Aug-20 19:15N 23°30' E 126°28'6 3.8 30.9
2016-Aug-20 17:45N 23°32' E 126°34'0 0.0 30.9
2016-Aug-20 17:30N 23°32' E 126°34'0 0.0 30.9
2016-Aug-20 14:00N 23°32' E 126°34'0 0.2 30.9
2016-Aug-20 13:15N 23°32' E 126°34'0 0.5 30.9
2016-Aug-20 13:00N 23°32' E 126°34'2 3.3 30.9
2016-Aug-20 12:15N 23°33' E 126°36'0 0.0 30.9
2016-Aug-20 11:30N 23°33' E 126°36'1 1.2 30.9
2016-Aug-20 11:00N 23°33' E 126°36'0 0.3 30.9
2016-Aug-20 10:30N 23°33' E 126°36'0 0.2 30.9
2016-Aug-20 09:30N 23°33' E 126°37'0 0.0 31.0
2016-Aug-20 09:15N 23°33' E 126°37'0 0.2 31.0
2016-Aug-20 08:45N 23°33' E 126°37'1 1.4 31.0
2016-Aug-20 07:45N 23°33' E 126°38'1 0.9 31.0
2016-Aug-20 06:45N 23°33' E 126°39'0 0.1 31.0
2016-Aug-20 05:15N 23°33' E 126°39'311.2 31.0
2016-Aug-20 05:00N 23°32' E 126°42'1 0.3 31.0
2016-Aug-20 02:00N 23°33' E 126°41'0 0.0 30.8
2016-Aug-20 01:45N 23°33' E 126°41'3 3.5 30.8
2016-Aug-20 01:00N 23°32' E 126°44'3 3.9 30.8
2016-Aug-20 00:15N 23°31' E 126°47'0 0.0 30.7
2016-Aug-19 22:45N 23°31' E 126°47'0 0.0 30.7
2016-Aug-19 22:15N 23°31' E 126°47'0 0.4 30.7
2016-Aug-19 22:00N 23°31' E 126°47'2 7.5 30.7
2016-Aug-19 21:45N 23°31' E 126°49'311.9 30.7
2016-Aug-19 21:30N 23°31' E 126°52'0 0.0 30.7
2016-Aug-19 21:15N 23°31' E 126°52'0 0.0 30.7
2016-Aug-19 21:00N 23°31' E 126°52'0 0.0 30.7
2016-Aug-19 20:30N 23°31' E 126°52'0 0.0 30.7
2016-Aug-19 20:15N 23°31' E 126°52'0 0.0 30.8
2016-Aug-19 20:00N 23°31' E 126°52'0 0.0 30.8
2016-Aug-19 18:00N 23°31' E 126°52'521.1 30.8
2016-Aug-19 17:45N 23°30' E 126°58'   30.8

Dump ship's entire track history